sensor_id;sensor_type;location;lat;lon;timestamp;P1;durP1;ratioP1;P2;durP2;ratioP2
75375;SDS011;63958;52.004;5.908;2023-01-28T13:24:50;6.38;;;4.50;;
75375;SDS011;63958;52.004;5.908;2023-01-28T13:27:23;7.43;;;5.20;;
75375;SDS011;63958;52.004;5.908;2023-01-28T13:30:00;8.05;;;5.60;;
75375;SDS011;63958;52.004;5.908;2023-01-28T13:32:32;6.93;;;4.72;;
75375;SDS011;63958;52.004;5.908;2023-01-28T13:35:04;6.75;;;5.03;;
75375;SDS011;63958;52.004;5.908;2023-01-28T13:37:35;7.32;;;5.47;;
75375;SDS011;63958;52.004;5.908;2023-01-28T13:40:20;8.68;;;6.07;;
75375;SDS011;63958;52.004;5.908;2023-01-28T13:43:01;8.68;;;6.40;;
75375;SDS011;63958;52.004;5.908;2023-01-28T13:45:32;7.22;;;5.50;;
75375;SDS011;63958;52.004;5.908;2023-01-28T13:48:04;7.50;;;5.75;;
75375;SDS011;63958;52.004;5.908;2023-01-28T13:50:51;11.75;;;8.43;;
75375;SDS011;63958;52.004;5.908;2023-01-28T13:53:22;7.28;;;5.38;;
75375;SDS011;63958;52.004;5.908;2023-01-28T13:56:02;4.97;;;3.50;;
75375;SDS011;63958;52.004;5.908;2023-01-28T13:58:43;5.97;;;4.38;;
75375;SDS011;63958;52.004;5.908;2023-01-28T14:01:40;4.07;;;3.00;;
75375;SDS011;63958;52.004;5.908;2023-01-28T14:07:38;3.85;;;2.95;;
75375;SDS011;63958;52.004;5.908;2023-01-28T14:10:24;4.28;;;3.00;;
75375;SDS011;63958;52.004;5.908;2023-01-28T14:16:26;4.43;;;2.95;;
75375;SDS011;63958;52.004;5.908;2023-01-28T14:19:03;3.95;;;2.65;;
75375;SDS011;63958;52.004;5.908;2023-01-28T14:21:33;3.22;;;2.10;;
75375;SDS011;63958;52.004;5.908;2023-01-28T14:24:03;2.97;;;2.00;;
75375;SDS011;63958;52.004;5.908;2023-01-28T14:26:34;2.72;;;2.20;;
75375;SDS011;63958;52.004;5.908;2023-01-28T14:29:16;2.90;;;2.05;;
75375;SDS011;63958;52.004;5.908;2023-01-28T14:31:54;3.17;;;2.42;;
75375;SDS011;63958;52.004;5.908;2023-01-28T14:34:24;4.35;;;2.97;;
75375;SDS011;63958;52.004;5.908;2023-01-28T14:36:56;7.63;;;5.05;;
75375;SDS011;63958;52.004;5.908;2023-01-28T14:39:28;4.67;;;3.37;;
75375;SDS011;63958;52.004;5.908;2023-01-28T14:42:00;3.42;;;2.60;;
75375;SDS011;63958;52.004;5.908;2023-01-28T14:44:31;3.75;;;2.47;;
75375;SDS011;63958;52.004;5.908;2023-01-28T14:47:14;4.18;;;2.90;;
75375;SDS011;63958;52.004;5.908;2023-01-28T14:49:57;5.22;;;3.60;;
75375;SDS011;63958;52.004;5.908;2023-01-28T14:52:43;11.30;;;8.15;;
75375;SDS011;63958;52.004;5.908;2023-01-28T14:55:26;8.05;;;6.38;;
75375;SDS011;63958;52.004;5.908;2023-01-28T14:58:01;6.35;;;4.43;;
75375;SDS011;63958;52.004;5.908;2023-01-28T15:00:33;5.20;;;4.05;;
75375;SDS011;63958;52.004;5.908;2023-01-28T15:03:10;4.28;;;3.17;;
75375;SDS011;63958;52.004;5.908;2023-01-28T15:05:45;5.03;;;3.60;;
75375;SDS011;63958;52.004;5.908;2023-01-28T15:08:20;5.75;;;3.67;;
75375;SDS011;63958;52.004;5.908;2023-01-28T15:10:50;4.30;;;3.22;;
75375;SDS011;63958;52.004;5.908;2023-01-28T15:13:22;3.90;;;3.00;;
75375;SDS011;63958;52.004;5.908;2023-01-28T15:15:53;4.10;;;3.00;;
75375;SDS011;63958;52.004;5.908;2023-01-28T15:18:29;3.65;;;2.50;;
75375;SDS011;63958;52.004;5.908;2023-01-28T15:21:01;3.70;;;2.67;;
75375;SDS011;63958;52.004;5.908;2023-01-28T15:23:32;3.83;;;2.80;;
75375;SDS011;63958;52.004;5.908;2023-01-28T15:26:05;3.45;;;2.55;;
75375;SDS011;63958;52.004;5.908;2023-01-28T15:28:37;3.03;;;2.20;;
75375;SDS011;63958;52.004;5.908;2023-01-28T15:31:14;2.70;;;1.90;;
75375;SDS011;63958;52.004;5.908;2023-01-28T15:33:57;3.08;;;2.40;;
75375;SDS011;63958;52.004;5.908;2023-01-28T15:36:27;2.95;;;2.00;;
75375;SDS011;63958;52.004;5.908;2023-01-28T15:38:56;2.65;;;2.05;;
75375;SDS011;63958;52.004;5.908;2023-01-28T15:41:26;2.95;;;1.95;;
75375;SDS011;63958;52.004;5.908;2023-01-28T15:43:59;3.03;;;2.20;;
75375;SDS011;63958;52.004;5.908;2023-01-28T15:46:29;2.03;;;1.60;;
75375;SDS011;63958;52.004;5.908;2023-01-28T15:49:01;2.85;;;1.90;;
75375;SDS011;63958;52.004;5.908;2023-01-28T15:51:31;3.25;;;2.22;;
75375;SDS011;63958;52.004;5.908;2023-01-28T15:54:02;2.80;;;1.98;;
75375;SDS011;63958;52.004;5.908;2023-01-28T15:56:32;2.08;;;1.45;;
75375;SDS011;63958;52.004;5.908;2023-01-28T15:59:09;2.42;;;1.70;;
75375;SDS011;63958;52.004;5.908;2023-01-28T16:01:45;2.15;;;1.63;;
75375;SDS011;63958;52.004;5.908;2023-01-28T16:04:24;3.35;;;2.38;;
75375;SDS011;63958;52.004;5.908;2023-01-28T16:06:54;3.60;;;2.60;;
75375;SDS011;63958;52.004;5.908;2023-01-28T16:09:26;3.13;;;2.30;;
75375;SDS011;63958;52.004;5.908;2023-01-28T16:12:00;3.50;;;2.47;;
75375;SDS011;63958;52.004;5.908;2023-01-28T16:14:30;3.10;;;2.10;;
75375;SDS011;63958;52.004;5.908;2023-01-28T16:17:05;3.30;;;2.15;;
75375;SDS011;63958;52.004;5.908;2023-01-28T16:19:38;5.35;;;2.63;;
75375;SDS011;63958;52.004;5.908;2023-01-28T16:22:16;4.10;;;2.40;;
75375;SDS011;63958;52.004;5.908;2023-01-28T16:24:49;5.15;;;3.05;;
75375;SDS011;63958;52.004;5.908;2023-01-28T16:27:20;5.03;;;2.85;;
75375;SDS011;63958;52.004;5.908;2023-01-28T16:29:51;6.63;;;3.85;;
75375;SDS011;63958;52.004;5.908;2023-01-28T16:32:30;5.13;;;3.10;;
75375;SDS011;63958;52.004;5.908;2023-01-28T16:35:05;4.10;;;2.67;;
75375;SDS011;63958;52.004;5.908;2023-01-28T16:37:40;3.72;;;2.33;;
75375;SDS011;63958;52.004;5.908;2023-01-28T16:40:10;4.22;;;2.75;;
75375;SDS011;63958;52.004;5.908;2023-01-28T16:42:41;5.57;;;3.38;;
75375;SDS011;63958;52.004;5.908;2023-01-28T16:45:13;4.05;;;2.70;;
75375;SDS011;63958;52.004;5.908;2023-01-28T16:47:44;3.55;;;2.30;;
75375;SDS011;63958;52.004;5.908;2023-01-28T16:50:16;3.03;;;2.15;;
75375;SDS011;63958;52.004;5.908;2023-01-28T16:52:47;3.75;;;2.58;;
75375;SDS011;63958;52.004;5.908;2023-01-28T16:55:18;4.78;;;2.92;;
75375;SDS011;63958;52.004;5.908;2023-01-28T16:57:49;4.07;;;2.80;;
75375;SDS011;63958;52.004;5.908;2023-01-28T17:00:20;4.32;;;3.05;;
75375;SDS011;63958;52.004;5.908;2023-01-28T17:02:51;3.78;;;2.65;;
75375;SDS011;63958;52.004;5.908;2023-01-28T17:05:23;4.10;;;2.83;;
75375;SDS011;63958;52.004;5.908;2023-01-28T17:07:52;3.97;;;2.63;;
75375;SDS011;63958;52.004;5.908;2023-01-28T17:10:23;4.22;;;2.45;;
75375;SDS011;63958;52.004;5.908;2023-01-28T17:12:53;4.28;;;2.60;;
75375;SDS011;63958;52.004;5.908;2023-01-28T17:15:23;3.95;;;2.67;;
75375;SDS011;63958;52.004;5.908;2023-01-28T17:17:52;4.80;;;3.33;;
75375;SDS011;63958;52.004;5.908;2023-01-28T17:20:23;4.75;;;3.70;;
75375;SDS011;63958;52.004;5.908;2023-01-28T17:22:52;4.53;;;3.35;;
75375;SDS011;63958;52.004;5.908;2023-01-28T17:25:21;5.57;;;3.95;;
75375;SDS011;63958;52.004;5.908;2023-01-28T17:27:50;5.32;;;3.67;;
75375;SDS011;63958;52.004;5.908;2023-01-28T17:30:19;5.45;;;3.90;;
75375;SDS011;63958;52.004;5.908;2023-01-28T17:32:48;5.97;;;4.25;;
75375;SDS011;63958;52.004;5.908;2023-01-28T17:35:17;8.23;;;5.60;;
75375;SDS011;63958;52.004;5.908;2023-01-28T17:37:48;5.80;;;4.00;;
75375;SDS011;63958;52.004;5.908;2023-01-28T17:40:20;5.75;;;4.45;;
75375;SDS011;63958;52.004;5.908;2023-01-28T17:42:49;5.75;;;3.92;;
75375;SDS011;63958;52.004;5.908;2023-01-28T17:45:18;5.10;;;3.55;;
75375;SDS011;63958;52.004;5.908;2023-01-28T17:47:46;7.35;;;5.13;;
75375;SDS011;63958;52.004;5.908;2023-01-28T17:50:15;4.90;;;3.65;;
75375;SDS011;63958;52.004;5.908;2023-01-28T17:52:44;5.78;;;4.55;;
75375;SDS011;63958;52.004;5.908;2023-01-28T17:55:20;5.60;;;3.90;;
75375;SDS011;63958;52.004;5.908;2023-01-28T17:57:49;5.15;;;3.95;;
75375;SDS011;63958;52.004;5.908;2023-01-28T18:00:19;4.95;;;3.72;;
75375;SDS011;63958;52.004;5.908;2023-01-28T18:02:48;5.13;;;3.67;;
75375;SDS011;63958;52.004;5.908;2023-01-28T18:05:17;4.80;;;3.35;;
75375;SDS011;63958;52.004;5.908;2023-01-28T18:07:49;4.70;;;3.50;;
75375;SDS011;63958;52.004;5.908;2023-01-28T18:10:18;4.78;;;3.25;;
75375;SDS011;63958;52.004;5.908;2023-01-28T18:12:47;5.03;;;3.67;;
75375;SDS011;63958;52.004;5.908;2023-01-28T18:15:16;4.95;;;3.38;;
75375;SDS011;63958;52.004;5.908;2023-01-28T18:17:44;4.43;;;3.47;;
75375;SDS011;63958;52.004;5.908;2023-01-28T18:20:13;4.28;;;2.78;;
75375;SDS011;63958;52.004;5.908;2023-01-28T18:22:43;5.00;;;3.33;;
75375;SDS011;63958;52.004;5.908;2023-01-28T18:25:16;4.65;;;3.33;;
75375;SDS011;63958;52.004;5.908;2023-01-28T18:27:45;4.82;;;3.53;;
75375;SDS011;63958;52.004;5.908;2023-01-28T18:30:15;5.63;;;3.58;;
75375;SDS011;63958;52.004;5.908;2023-01-28T18:32:44;5.38;;;3.83;;
75375;SDS011;63958;52.004;5.908;2023-01-28T18:35:13;3.80;;;3.05;;
75375;SDS011;63958;52.004;5.908;2023-01-28T18:37:42;4.25;;;3.00;;
75375;SDS011;63958;52.004;5.908;2023-01-28T18:40:11;3.67;;;2.67;;
75375;SDS011;63958;52.004;5.908;2023-01-28T18:42:43;3.78;;;2.80;;
75375;SDS011;63958;52.004;5.908;2023-01-28T18:45:12;5.65;;;3.63;;
75375;SDS011;63958;52.004;5.908;2023-01-28T18:47:40;4.35;;;3.22;;
75375;SDS011;63958;52.004;5.908;2023-01-28T18:50:09;4.68;;;3.30;;
75375;SDS011;63958;52.004;5.908;2023-01-28T18:52:38;4.53;;;3.30;;
75375;SDS011;63958;52.004;5.908;2023-01-28T18:55:08;5.60;;;3.95;;
75375;SDS011;63958;52.004;5.908;2023-01-28T18:57:37;4.20;;;3.05;;
75375;SDS011;63958;52.004;5.908;2023-01-28T19:00:09;4.38;;;2.83;;
75375;SDS011;63958;52.004;5.908;2023-01-28T19:02:39;4.82;;;3.08;;
75375;SDS011;63958;52.004;5.908;2023-01-28T19:05:08;4.97;;;3.40;;
75375;SDS011;63958;52.004;5.908;2023-01-28T19:07:38;5.43;;;3.60;;
75375;SDS011;63958;52.004;5.908;2023-01-28T19:10:07;4.35;;;3.13;;
75375;SDS011;63958;52.004;5.908;2023-01-28T19:12:37;5.63;;;3.63;;
75375;SDS011;63958;52.004;5.908;2023-01-28T19:15:06;5.22;;;3.58;;
75375;SDS011;63958;52.004;5.908;2023-01-28T19:17:38;4.78;;;3.60;;
75375;SDS011;63958;52.004;5.908;2023-01-28T19:20:08;6.00;;;3.90;;
75375;SDS011;63958;52.004;5.908;2023-01-28T19:22:38;5.40;;;3.15;;
75375;SDS011;63958;52.004;5.908;2023-01-28T19:25:07;4.47;;;2.92;;
75375;SDS011;63958;52.004;5.908;2023-01-28T19:27:37;3.80;;;2.63;;
75375;SDS011;63958;52.004;5.908;2023-01-28T19:30:06;3.70;;;2.47;;
75375;SDS011;63958;52.004;5.908;2023-01-28T19:32:38;5.05;;;3.20;;
75375;SDS011;63958;52.004;5.908;2023-01-28T19:35:07;5.30;;;3.42;;
75375;SDS011;63958;52.004;5.908;2023-01-28T19:37:36;4.65;;;3.17;;
75375;SDS011;63958;52.004;5.908;2023-01-28T19:40:06;4.25;;;3.00;;
75375;SDS011;63958;52.004;5.908;2023-01-28T19:42:36;4.20;;;2.83;;
75375;SDS011;63958;52.004;5.908;2023-01-28T19:45:05;3.10;;;2.28;;
75375;SDS011;63958;52.004;5.908;2023-01-28T19:47:35;3.20;;;2.10;;
75375;SDS011;63958;52.004;5.908;2023-01-28T19:50:08;3.38;;;2.30;;
75375;SDS011;63958;52.004;5.908;2023-01-28T19:52:37;3.80;;;2.42;;
75375;SDS011;63958;52.004;5.908;2023-01-28T19:55:07;4.00;;;2.78;;
75375;SDS011;63958;52.004;5.908;2023-01-28T19:57:36;4.45;;;3.28;;
75375;SDS011;63958;52.004;5.908;2023-01-28T20:00:06;4.53;;;2.92;;
75375;SDS011;63958;52.004;5.908;2023-01-28T20:02:36;7.13;;;4.07;;
75375;SDS011;63958;52.004;5.908;2023-01-28T20:05:08;7.55;;;4.95;;
75375;SDS011;63958;52.004;5.908;2023-01-28T20:07:37;5.50;;;3.58;;
75375;SDS011;63958;52.004;5.908;2023-01-28T20:10:06;4.00;;;2.70;;
75375;SDS011;63958;52.004;5.908;2023-01-28T20:12:35;4.18;;;2.88;;
75375;SDS011;63958;52.004;5.908;2023-01-28T20:15:04;4.35;;;3.05;;
75375;SDS011;63958;52.004;5.908;2023-01-28T20:17:34;5.15;;;3.22;;
75375;SDS011;63958;52.004;5.908;2023-01-28T20:20:04;5.22;;;3.45;;
75375;SDS011;63958;52.004;5.908;2023-01-28T20:22:36;5.03;;;3.35;;
75375;SDS011;63958;52.004;5.908;2023-01-28T20:25:07;5.95;;;3.10;;
75375;SDS011;63958;52.004;5.908;2023-01-28T20:27:36;5.20;;;3.65;;
75375;SDS011;63958;52.004;5.908;2023-01-28T20:30:06;4.25;;;3.13;;
75375;SDS011;63958;52.004;5.908;2023-01-28T20:32:36;4.88;;;3.67;;
75375;SDS011;63958;52.004;5.908;2023-01-28T20:35:05;6.22;;;4.25;;
75375;SDS011;63958;52.004;5.908;2023-01-28T20:37:37;4.78;;;3.20;;
75375;SDS011;63958;52.004;5.908;2023-01-28T20:40:07;5.32;;;3.53;;
75375;SDS011;63958;52.004;5.908;2023-01-28T20:42:37;5.40;;;3.95;;
75375;SDS011;63958;52.004;5.908;2023-01-28T20:45:07;5.80;;;3.63;;
75375;SDS011;63958;52.004;5.908;2023-01-28T20:47:36;5.50;;;3.72;;
75375;SDS011;63958;52.004;5.908;2023-01-28T20:50:05;6.07;;;4.57;;
75375;SDS011;63958;52.004;5.908;2023-01-28T20:52:37;5.95;;;3.45;;
75375;SDS011;63958;52.004;5.908;2023-01-28T20:55:07;6.03;;;4.00;;
75375;SDS011;63958;52.004;5.908;2023-01-28T20:57:37;5.88;;;3.80;;
75375;SDS011;63958;52.004;5.908;2023-01-28T21:00:07;5.43;;;3.78;;
75375;SDS011;63958;52.004;5.908;2023-01-28T21:02:38;4.77;;;3.13;;
75375;SDS011;63958;52.004;5.908;2023-01-28T21:05:08;5.25;;;3.85;;
75375;SDS011;63958;52.004;5.908;2023-01-28T21:07:40;5.47;;;3.58;;
75375;SDS011;63958;52.004;5.908;2023-01-28T21:10:10;6.15;;;4.20;;
75375;SDS011;63958;52.004;5.908;2023-01-28T21:12:39;7.50;;;4.13;;
75375;SDS011;63958;52.004;5.908;2023-01-28T21:15:08;7.35;;;4.85;;
75375;SDS011;63958;52.004;5.908;2023-01-28T21:17:37;6.22;;;3.70;;
75375;SDS011;63958;52.004;5.908;2023-01-28T21:20:07;6.65;;;4.38;;
75375;SDS011;63958;52.004;5.908;2023-01-28T21:22:42;5.30;;;3.50;;
75375;SDS011;63958;52.004;5.908;2023-01-28T21:25:11;5.72;;;3.42;;
75375;SDS011;63958;52.004;5.908;2023-01-28T21:27:40;4.60;;;3.22;;
75375;SDS011;63958;52.004;5.908;2023-01-28T21:30:10;4.90;;;3.40;;
75375;SDS011;63958;52.004;5.908;2023-01-28T21:32:39;4.55;;;3.17;;
75375;SDS011;63958;52.004;5.908;2023-01-28T21:35:08;6.15;;;4.18;;
75375;SDS011;63958;52.004;5.908;2023-01-28T21:37:37;6.45;;;3.70;;
75375;SDS011;63958;52.004;5.908;2023-01-28T21:40:10;4.70;;;3.50;;
75375;SDS011;63958;52.004;5.908;2023-01-28T21:42:39;5.35;;;3.90;;
75375;SDS011;63958;52.004;5.908;2023-01-28T21:45:08;5.50;;;3.45;;
75375;SDS011;63958;52.004;5.908;2023-01-28T21:47:38;4.68;;;3.10;;
75375;SDS011;63958;52.004;5.908;2023-01-28T21:50:08;4.70;;;3.40;;
75375;SDS011;63958;52.004;5.908;2023-01-28T21:52:37;6.03;;;3.75;;
75375;SDS011;63958;52.004;5.908;2023-01-28T21:55:09;5.95;;;4.25;;
75375;SDS011;63958;52.004;5.908;2023-01-28T21:57:38;6.05;;;3.78;;
75375;SDS011;63958;52.004;5.908;2023-01-28T22:00:07;4.47;;;3.25;;
75375;SDS011;63958;52.004;5.908;2023-01-28T22:02:37;5.22;;;3.58;;
75375;SDS011;63958;52.004;5.908;2023-01-28T22:05:06;5.30;;;3.65;;
75375;SDS011;63958;52.004;5.908;2023-01-28T22:07:35;4.97;;;3.30;;
75375;SDS011;63958;52.004;5.908;2023-01-28T22:10:04;4.50;;;3.30;;
75375;SDS011;63958;52.004;5.908;2023-01-28T22:12:37;7.28;;;4.47;;
75375;SDS011;63958;52.004;5.908;2023-01-28T22:15:06;3.55;;;2.50;;
75375;SDS011;63958;52.004;5.908;2023-01-28T22:17:36;4.32;;;2.88;;
75375;SDS011;63958;52.004;5.908;2023-01-28T22:20:05;5.88;;;4.03;;
75375;SDS011;63958;52.004;5.908;2023-01-28T22:22:35;6.50;;;3.47;;
75375;SDS011;63958;52.004;5.908;2023-01-28T22:25:04;5.53;;;3.88;;
75375;SDS011;63958;52.004;5.908;2023-01-28T22:27:36;5.85;;;4.05;;
75375;SDS011;63958;52.004;5.908;2023-01-28T22:30:06;5.95;;;3.88;;
75375;SDS011;63958;52.004;5.908;2023-01-28T22:32:36;7.35;;;4.90;;
75375;SDS011;63958;52.004;5.908;2023-01-28T22:35:05;10.75;;;7.00;;
75375;SDS011;63958;52.004;5.908;2023-01-28T22:37:34;7.25;;;5.03;;
75375;SDS011;63958;52.004;5.908;2023-01-28T22:40:03;6.70;;;4.63;;
75375;SDS011;63958;52.004;5.908;2023-01-28T22:42:32;7.85;;;5.00;;
75375;SDS011;63958;52.004;5.908;2023-01-28T22:45:04;9.05;;;5.65;;
75375;SDS011;63958;52.004;5.908;2023-01-28T22:47:35;6.63;;;4.00;;
75375;SDS011;63958;52.004;5.908;2023-01-28T22:50:04;11.13;;;7.25;;
75375;SDS011;63958;52.004;5.908;2023-01-28T22:52:33;8.18;;;5.20;;
75375;SDS011;63958;52.004;5.908;2023-01-28T22:55:02;7.88;;;5.20;;
75375;SDS011;63958;52.004;5.908;2023-01-28T22:57:31;5.75;;;3.90;;
75375;SDS011;63958;52.004;5.908;2023-01-28T23:00:00;7.22;;;4.93;;
75375;SDS011;63958;52.004;5.908;2023-01-28T23:02:33;7.28;;;4.97;;
75375;SDS011;63958;52.004;5.908;2023-01-28T23:05:02;6.10;;;4.15;;
75375;SDS011;63958;52.004;5.908;2023-01-28T23:07:32;6.68;;;4.80;;
75375;SDS011;63958;52.004;5.908;2023-01-28T23:10:00;4.90;;;3.20;;
75375;SDS011;63958;52.004;5.908;2023-01-28T23:12:29;5.47;;;3.83;;
75375;SDS011;63958;52.004;5.908;2023-01-28T23:14:58;8.48;;;4.85;;
75375;SDS011;63958;52.004;5.908;2023-01-28T23:17:42;5.65;;;3.95;;
75375;SDS011;63958;52.004;5.908;2023-01-28T23:20:23;5.22;;;3.30;;
75375;SDS011;63958;52.004;5.908;2023-01-28T23:23:20;6.45;;;4.15;;
75375;SDS011;63958;52.004;5.908;2023-01-28T23:26:01;6.05;;;4.28;;
75375;SDS011;63958;52.004;5.908;2023-01-28T23:28:30;4.28;;;3.00;;
75375;SDS011;63958;52.004;5.908;2023-01-28T23:30:59;4.90;;;3.50;;
75375;SDS011;63958;52.004;5.908;2023-01-28T23:33:31;4.93;;;3.55;;
75375;SDS011;63958;52.004;5.908;2023-01-28T23:36:00;5.78;;;3.88;;
75375;SDS011;63958;52.004;5.908;2023-01-28T23:38:29;6.28;;;4.38;;
75375;SDS011;63958;52.004;5.908;2023-01-28T23:40:58;9.45;;;5.90;;
75375;SDS011;63958;52.004;5.908;2023-01-28T23:43:27;6.18;;;4.20;;
75375;SDS011;63958;52.004;5.908;2023-01-28T23:45:56;6.97;;;4.55;;
75375;SDS011;63958;52.004;5.908;2023-01-28T23:48:25;6.75;;;4.18;;
75375;SDS011;63958;52.004;5.908;2023-01-28T23:50:56;5.13;;;3.58;;
75375;SDS011;63958;52.004;5.908;2023-01-28T23:53:25;6.80;;;4.13;;
75375;SDS011;63958;52.004;5.908;2023-01-28T23:55:54;7.03;;;4.95;;
75375;SDS011;63958;52.004;5.908;2023-01-28T23:58:23;8.15;;;5.43;;
